createdAt,value
2024-02-05T00:02:57.740Z,10.51
2024-02-05T00:07:59.593Z,10.58
2024-02-05T00:13:01.232Z,10.58
2024-02-05T00:18:02.859Z,10.58
2024-02-05T00:23:04.457Z,10.56
2024-02-05T00:28:06.430Z,10.62
2024-02-05T00:33:08.280Z,10.60
2024-02-05T00:38:10.098Z,10.64
2024-02-05T00:43:12.194Z,10.62
2024-02-05T00:48:13.835Z,10.69
2024-02-05T00:53:15.607Z,10.68
2024-02-05T00:58:17.090Z,10.66
2024-02-05T01:03:18.550Z,10.65
2024-02-05T01:08:20.116Z,10.65
2024-02-05T01:13:21.704Z,10.65
2024-02-05T01:18:23.228Z,10.64
2024-02-05T01:23:24.699Z,10.66
2024-02-05T01:28:26.402Z,10.65
2024-02-05T01:33:28.042Z,10.64
2024-02-05T01:38:34.767Z,10.62
2024-02-05T01:43:36.211Z,10.65
2024-02-05T01:48:41.279Z,10.65
2024-02-05T01:53:43.630Z,10.61
2024-02-05T01:58:45.140Z,10.62
2024-02-05T02:03:51.090Z,10.60
2024-02-05T02:08:53.139Z,10.59
2024-02-05T02:13:54.601Z,10.64
2024-02-05T02:18:58.087Z,10.62
2024-02-05T02:24:00.454Z,10.65
2024-02-05T02:29:02.121Z,10.60
2024-02-05T02:34:11.411Z,10.61
2024-02-05T02:39:20.712Z,10.59
2024-02-05T02:44:23.961Z,10.63
2024-02-05T02:49:25.541Z,10.56
2024-02-05T02:54:27.000Z,10.54
2024-02-05T02:59:28.557Z,10.62
2024-02-05T03:04:30.727Z,10.56
2024-02-05T03:09:32.220Z,10.55
2024-02-05T03:14:41.358Z,10.52
2024-02-05T03:19:42.944Z,10.48
2024-02-05T03:24:44.618Z,10.50
2024-02-05T03:29:46.158Z,10.53
2024-02-05T03:34:48.034Z,10.52
2024-02-05T03:39:49.726Z,10.54
2024-02-05T03:44:51.209Z,10.46
2024-02-05T03:49:52.763Z,10.46
2024-02-05T03:54:54.507Z,10.42
2024-02-05T03:59:55.991Z,10.45
2024-02-05T04:04:57.543Z,10.42
2024-02-05T04:09:59.187Z,10.36
2024-02-05T04:15:01.084Z,10.33
2024-02-05T04:20:02.811Z,10.34
2024-02-05T04:25:04.687Z,10.28
2024-02-05T04:30:06.861Z,10.26
2024-02-05T04:35:09.332Z,10.30
2024-02-05T04:40:11.156Z,10.28
2024-02-05T04:45:12.801Z,10.28
2024-02-05T04:50:15.710Z,10.24
2024-02-05T04:55:17.574Z,10.26
2024-02-05T05:00:22.145Z,10.23
2024-02-05T05:05:23.865Z,10.23
2024-02-05T05:10:25.520Z,10.25
2024-02-05T05:15:29.100Z,10.20
2024-02-05T05:20:39.908Z,10.25
2024-02-05T05:25:41.336Z,10.20
2024-02-05T05:30:42.833Z,10.25
2024-02-05T05:35:44.380Z,10.19
2024-02-05T05:40:45.994Z,10.23
2024-02-05T05:45:47.433Z,10.23
2024-02-05T05:50:49.323Z,10.24
2024-02-05T05:55:50.937Z,10.19
2024-02-05T06:00:52.591Z,10.15
2024-02-05T06:05:54.265Z,10.13
2024-02-05T06:10:55.718Z,10.18
2024-02-05T06:15:57.178Z,10.13
2024-02-05T06:20:59.848Z,10.09
2024-02-05T06:26:01.301Z,10.06
2024-02-05T06:31:02.913Z,9.98
2024-02-05T06:36:04.589Z,10.06
2024-02-05T06:41:12.338Z,10.04
2024-02-05T06:46:16.655Z,9.99
2024-02-05T06:51:18.193Z,9.99
2024-02-05T06:56:19.748Z,9.99
2024-02-05T07:01:21.370Z,10.03
2024-02-05T07:06:22.840Z,9.99
2024-02-05T07:11:24.330Z,10.01
2024-02-05T07:16:25.863Z,10.00
2024-02-05T07:21:27.344Z,9.99
2024-02-05T07:26:33.446Z,10.04
2024-02-05T07:31:36.208Z,10.09
2024-02-05T07:36:37.724Z,10.09
2024-02-05T07:41:39.868Z,10.12
2024-02-05T07:46:41.317Z,10.15
2024-02-05T07:51:46.646Z,10.20
2024-02-05T07:56:48.136Z,10.30
2024-02-05T08:01:49.920Z,10.44
2024-02-05T08:06:52.111Z,10.35
2024-02-05T08:11:53.573Z,10.31
2024-02-05T08:16:55.164Z,10.32
2024-02-05T08:21:56.712Z,10.33
2024-02-05T08:26:58.434Z,10.33
2024-02-05T08:31:59.972Z,10.54
2024-02-05T08:37:01.398Z,10.51
2024-02-05T08:42:12.059Z,10.69
2024-02-05T08:47:22.293Z,10.88
2024-02-05T08:52:23.720Z,10.89
2024-02-05T08:57:25.332Z,11.07
2024-02-05T09:02:27.327Z,11.09
2024-02-05T09:07:28.854Z,11.54
2024-02-05T09:12:30.407Z,11.53
2024-02-05T09:17:32.370Z,11.48
2024-02-05T09:22:35.203Z,11.67
2024-02-05T09:27:37.017Z,11.59
2024-02-05T09:32:38.474Z,11.65
2024-02-05T09:37:44.316Z,11.51
2024-02-05T09:42:46.503Z,11.87
2024-02-05T09:47:49.968Z,11.41
2024-02-05T09:52:52.131Z,11.59
2024-02-05T09:57:54.690Z,11.52
2024-02-05T10:02:58.625Z,11.46
2024-02-05T10:08:02.086Z,11.41
2024-02-05T10:13:05.745Z,11.43
2024-02-05T10:18:07.479Z,11.13
2024-02-05T10:23:09.711Z,11.27
2024-02-05T10:28:11.281Z,11.46
2024-02-05T10:33:16.892Z,11.84
2024-02-05T10:38:18.435Z,11.73
2024-02-05T10:43:19.958Z,11.83
2024-02-05T10:48:21.498Z,12.19
2024-02-05T10:53:23.119Z,12.32
2024-02-05T10:58:26.791Z,12.62
2024-02-05T11:03:30.547Z,12.80
2024-02-05T11:08:35.840Z,12.82
2024-02-05T11:13:49.971Z,12.86
2024-02-05T11:18:55.589Z,12.83
2024-02-05T11:23:58.909Z,13.19
2024-02-05T11:29:00.418Z,12.91
2024-02-05T11:34:19.410Z,13.32
2024-02-05T11:39:21.031Z,13.82
2024-02-05T11:44:22.527Z,13.79
2024-02-05T11:49:33.615Z,14.60
2024-02-05T11:54:38.533Z,15.34
2024-02-05T11:59:39.934Z,15.46
2024-02-05T12:04:43.523Z,14.58
2024-02-05T12:09:45.246Z,15.07
2024-02-05T12:14:46.655Z,15.72
2024-02-05T12:19:48.339Z,14.95
2024-02-05T12:24:50.572Z,15.44
2024-02-05T12:29:55.182Z,15.91
2024-02-05T12:35:01.748Z,16.21
2024-02-05T12:40:03.620Z,15.87
2024-02-05T12:45:12.439Z,15.69
2024-02-05T12:50:17.552Z,15.07
2024-02-05T12:55:19.257Z,14.74
2024-02-05T13:00:21.410Z,13.82
2024-02-05T13:05:23.431Z,13.37
2024-02-05T13:10:25.152Z,13.39
2024-02-05T13:15:26.959Z,13.29
2024-02-05T13:20:28.684Z,13.09
2024-02-05T13:25:33.272Z,13.48
2024-02-05T13:30:35.302Z,14.69
2024-02-05T13:35:36.738Z,14.88
2024-02-05T13:40:38.472Z,14.71
2024-02-05T13:45:40.363Z,14.60
2024-02-05T13:50:41.964Z,14.10
2024-02-05T13:55:43.555Z,13.96
2024-02-05T14:00:45.151Z,14.01
2024-02-05T14:05:46.791Z,14.02
2024-02-05T14:10:51.474Z,14.43
2024-02-05T14:15:53.603Z,14.22
2024-02-05T14:20:55.244Z,14.21
2024-02-05T14:25:56.675Z,13.83
2024-02-05T14:30:58.617Z,14.02
2024-02-05T14:36:00.087Z,14.07
2024-02-05T14:41:05.981Z,13.64
2024-02-05T14:46:07.599Z,13.63
2024-02-05T14:51:09.156Z,13.45
2024-02-05T14:56:10.633Z,12.76
2024-02-05T15:01:12.218Z,12.32
2024-02-05T15:06:14.860Z,12.32
2024-02-05T15:11:16.403Z,12.14
2024-02-05T15:16:18.425Z,11.97
2024-02-05T15:21:20.290Z,11.76
2024-02-05T15:26:21.731Z,11.71
2024-02-05T15:31:23.184Z,11.57
2024-02-05T15:36:24.679Z,11.37
2024-02-05T15:41:26.484Z,11.37
2024-02-05T15:46:30.675Z,11.20
2024-02-05T15:51:32.151Z,10.91
2024-02-05T15:56:39.782Z,10.86
2024-02-05T16:01:48.017Z,10.69
2024-02-05T16:06:49.982Z,10.72
2024-02-05T16:11:51.625Z,10.54
2024-02-05T16:16:53.292Z,10.45
2024-02-05T16:21:54.753Z,10.23
2024-02-05T16:26:56.217Z,10.13
2024-02-05T16:31:57.818Z,10.14
2024-02-05T16:36:59.297Z,9.87
2024-02-05T16:42:00.722Z,9.78
2024-02-05T16:47:02.135Z,9.64
2024-02-05T16:52:03.779Z,9.55
2024-02-05T16:57:05.249Z,9.40
2024-02-05T17:02:07.342Z,9.37
2024-02-05T17:07:09.112Z,9.31
2024-02-05T17:12:10.705Z,9.16
2024-02-05T17:17:12.380Z,9.13
2024-02-05T17:22:13.820Z,9.11
2024-02-05T17:27:15.398Z,9.03
2024-02-05T17:32:16.960Z,9.15
2024-02-05T17:37:18.517Z,9.14
2024-02-05T17:42:20.292Z,9.21
2024-02-05T17:47:22.097Z,9.20
2024-02-05T17:52:23.582Z,9.11
2024-02-05T17:57:25.426Z,9.12
2024-02-05T18:02:26.956Z,9.04
2024-02-05T18:07:28.760Z,9.01
2024-02-05T18:12:30.244Z,8.99
2024-02-05T18:17:31.700Z,8.92
2024-02-05T18:22:33.328Z,8.93
2024-02-05T18:27:34.887Z,8.94
2024-02-05T18:32:36.405Z,8.88
2024-02-05T18:37:38.227Z,8.93
2024-02-05T18:42:39.755Z,8.88
2024-02-05T18:47:41.165Z,8.87
2024-02-05T18:52:43.060Z,8.93
2024-02-05T18:57:46.917Z,8.87
2024-02-05T19:02:48.413Z,8.86
2024-02-05T19:07:49.844Z,8.84
2024-02-05T19:12:52.407Z,8.80
2024-02-05T19:17:54.299Z,8.86
2024-02-05T19:22:55.805Z,8.78
2024-02-05T19:27:57.402Z,8.83
2024-02-05T19:32:59.028Z,8.78
2024-02-05T19:38:00.570Z,8.77
2024-02-05T19:43:02.023Z,8.79
2024-02-05T19:48:03.787Z,8.76
2024-02-05T19:53:05.207Z,8.78
2024-02-05T19:58:06.734Z,8.77
2024-02-05T20:03:08.120Z,8.70
2024-02-05T20:08:09.712Z,8.74
2024-02-05T20:13:11.283Z,8.72
2024-02-05T20:18:12.869Z,8.71
2024-02-05T20:23:14.332Z,8.70
2024-02-05T20:28:15.771Z,8.75
2024-02-05T20:33:17.262Z,8.71
2024-02-05T20:38:19.108Z,8.69
2024-02-05T20:43:20.798Z,8.69
2024-02-05T20:48:22.361Z,8.70
2024-02-05T20:53:23.950Z,8.77
2024-02-05T20:58:25.375Z,8.71
2024-02-05T21:03:26.971Z,8.67
2024-02-05T21:08:28.765Z,8.60
2024-02-05T21:13:30.926Z,8.58
2024-02-05T21:18:32.735Z,8.50
2024-02-05T21:23:34.478Z,8.53
2024-02-05T21:28:36.077Z,8.50
2024-02-05T21:33:37.738Z,8.59
2024-02-05T21:38:39.192Z,8.50
2024-02-05T21:43:41.333Z,8.50
2024-02-05T21:48:42.923Z,8.55
2024-02-05T21:53:44.659Z,8.53
2024-02-05T21:58:46.274Z,8.60
2024-02-05T22:03:47.776Z,8.61
2024-02-05T22:08:49.775Z,8.68
2024-02-05T22:13:51.267Z,8.60
2024-02-05T22:18:53.008Z,8.59
2024-02-05T22:23:54.720Z,8.53
2024-02-05T22:28:56.163Z,8.51
2024-02-05T22:33:57.712Z,8.44
2024-02-05T22:38:59.241Z,8.40
2024-02-05T22:44:00.687Z,8.40
2024-02-05T22:49:02.398Z,8.44
2024-02-05T22:54:04.029Z,8.39
2024-02-05T22:59:06.268Z,8.46
2024-02-05T23:04:07.894Z,8.51
2024-02-05T23:09:09.302Z,8.50
2024-02-05T23:14:10.735Z,8.58
2024-02-05T23:19:12.261Z,8.53
2024-02-05T23:24:14.099Z,8.54
2024-02-05T23:29:15.562Z,8.57
2024-02-05T23:34:17.543Z,8.59
2024-02-05T23:39:19.122Z,8.60
2024-02-05T23:44:20.594Z,8.62
2024-02-05T23:49:22.139Z,8.64
2024-02-05T23:54:24.165Z,8.74
2024-02-05T23:59:25.991Z,8.78
